sensor_id;sensor_type;location;lat;lon;timestamp;P1;durP1;ratioP1;P2;durP2;ratioP2
13230;SDS011;6681;53.254;10.398;2022-12-11T00:02:17;15.43;;;10.70;;
13230;SDS011;6681;53.254;10.398;2022-12-11T00:04:43;18.57;;;10.57;;
13230;SDS011;6681;53.254;10.398;2022-12-11T00:07:09;17.27;;;11.13;;
13230;SDS011;6681;53.254;10.398;2022-12-11T00:09:34;17.57;;;11.13;;
13230;SDS011;6681;53.254;10.398;2022-12-11T00:12:00;16.60;;;9.77;;
13230;SDS011;6681;53.254;10.398;2022-12-11T00:14:26;19.00;;;10.93;;
13230;SDS011;6681;53.254;10.398;2022-12-11T00:16:53;17.47;;;12.03;;
13230;SDS011;6681;53.254;10.398;2022-12-11T00:19:19;16.67;;;10.80;;
13230;SDS011;6681;53.254;10.398;2022-12-11T00:21:44;18.47;;;11.77;;
13230;SDS011;6681;53.254;10.398;2022-12-11T00:24:10;17.87;;;11.17;;
13230;SDS011;6681;53.254;10.398;2022-12-11T00:26:36;18.57;;;12.10;;
13230;SDS011;6681;53.254;10.398;2022-12-11T00:29:02;19.30;;;10.60;;
13230;SDS011;6681;53.254;10.398;2022-12-11T00:31:28;19.40;;;11.20;;
13230;SDS011;6681;53.254;10.398;2022-12-11T00:33:53;19.47;;;11.93;;
13230;SDS011;6681;53.254;10.398;2022-12-11T00:36:20;16.10;;;10.67;;
13230;SDS011;6681;53.254;10.398;2022-12-11T00:38:48;20.93;;;11.03;;
13230;SDS011;6681;53.254;10.398;2022-12-11T00:41:15;20.93;;;11.07;;
13230;SDS011;6681;53.254;10.398;2022-12-11T00:43:42;19.13;;;12.07;;
13230;SDS011;6681;53.254;10.398;2022-12-11T00:46:08;16.27;;;10.70;;
13230;SDS011;6681;53.254;10.398;2022-12-11T00:48:34;18.83;;;10.60;;
13230;SDS011;6681;53.254;10.398;2022-12-11T00:51:00;20.27;;;11.33;;
13230;SDS011;6681;53.254;10.398;2022-12-11T00:53:26;17.27;;;11.83;;
13230;SDS011;6681;53.254;10.398;2022-12-11T00:55:52;20.87;;;11.63;;
13230;SDS011;6681;53.254;10.398;2022-12-11T00:58:17;16.70;;;11.27;;
13230;SDS011;6681;53.254;10.398;2022-12-11T01:00:43;18.83;;;12.10;;
13230;SDS011;6681;53.254;10.398;2022-12-11T01:03:09;16.50;;;10.40;;
13230;SDS011;6681;53.254;10.398;2022-12-11T01:05:38;20.83;;;12.03;;
13230;SDS011;6681;53.254;10.398;2022-12-11T01:08:04;18.13;;;11.57;;
13230;SDS011;6681;53.254;10.398;2022-12-11T01:10:31;16.77;;;11.00;;
13230;SDS011;6681;53.254;10.398;2022-12-11T01:13:04;18.33;;;11.53;;
13230;SDS011;6681;53.254;10.398;2022-12-11T01:15:37;18.20;;;12.80;;
13230;SDS011;6681;53.254;10.398;2022-12-11T01:18:04;17.63;;;12.00;;
13230;SDS011;6681;53.254;10.398;2022-12-11T01:20:30;18.60;;;10.77;;
13230;SDS011;6681;53.254;10.398;2022-12-11T01:22:57;17.47;;;11.00;;
13230;SDS011;6681;53.254;10.398;2022-12-11T01:25:24;19.40;;;11.50;;
13230;SDS011;6681;53.254;10.398;2022-12-11T01:27:52;18.00;;;10.53;;
13230;SDS011;6681;53.254;10.398;2022-12-11T01:30:19;17.87;;;10.93;;
13230;SDS011;6681;53.254;10.398;2022-12-11T01:32:47;18.03;;;11.97;;
13230;SDS011;6681;53.254;10.398;2022-12-11T01:35:12;13.83;;;9.97;;
13230;SDS011;6681;53.254;10.398;2022-12-11T01:37:39;16.63;;;9.97;;
13230;SDS011;6681;53.254;10.398;2022-12-11T01:40:05;16.47;;;10.27;;
13230;SDS011;6681;53.254;10.398;2022-12-11T01:42:31;17.27;;;9.90;;
13230;SDS011;6681;53.254;10.398;2022-12-11T01:45:13;18.37;;;10.37;;
13230;SDS011;6681;53.254;10.398;2022-12-11T01:47:40;15.60;;;10.93;;
13230;SDS011;6681;53.254;10.398;2022-12-11T01:50:07;16.83;;;10.17;;
13230;SDS011;6681;53.254;10.398;2022-12-11T01:52:33;18.17;;;10.50;;
13230;SDS011;6681;53.254;10.398;2022-12-11T01:54:58;14.73;;;9.67;;
13230;SDS011;6681;53.254;10.398;2022-12-11T01:57:25;19.87;;;11.87;;
13230;SDS011;6681;53.254;10.398;2022-12-11T01:59:51;15.97;;;10.37;;
13230;SDS011;6681;53.254;10.398;2022-12-11T02:02:18;16.37;;;9.90;;
13230;SDS011;6681;53.254;10.398;2022-12-11T02:04:46;24.30;;;12.07;;
13230;SDS011;6681;53.254;10.398;2022-12-11T02:07:15;17.87;;;10.27;;
13230;SDS011;6681;53.254;10.398;2022-12-11T02:09:41;16.73;;;8.97;;
13230;SDS011;6681;53.254;10.398;2022-12-11T02:15:16;16.63;;;10.57;;
13230;SDS011;6681;53.254;10.398;2022-12-11T02:18:06;14.13;;;9.67;;
13230;SDS011;6681;53.254;10.398;2022-12-11T02:21:04;18.47;;;10.70;;
13230;SDS011;6681;53.254;10.398;2022-12-11T02:23:40;17.13;;;11.07;;
13230;SDS011;6681;53.254;10.398;2022-12-11T02:29:07;20.47;;;10.63;;
13230;SDS011;6681;53.254;10.398;2022-12-11T02:31:44;17.03;;;10.13;;
13230;SDS011;6681;53.254;10.398;2022-12-11T02:37:15;17.57;;;10.43;;
13230;SDS011;6681;53.254;10.398;2022-12-11T02:39:44;19.43;;;10.37;;
13230;SDS011;6681;53.254;10.398;2022-12-11T02:42:12;23.30;;;11.40;;
13230;SDS011;6681;53.254;10.398;2022-12-11T02:44:40;15.63;;;10.27;;
13230;SDS011;6681;53.254;10.398;2022-12-11T02:47:08;17.77;;;10.13;;
13230;SDS011;6681;53.254;10.398;2022-12-11T02:49:37;17.17;;;10.63;;
13230;SDS011;6681;53.254;10.398;2022-12-11T02:52:06;18.47;;;10.60;;
13230;SDS011;6681;53.254;10.398;2022-12-11T02:54:35;16.70;;;10.00;;
13230;SDS011;6681;53.254;10.398;2022-12-11T02:57:03;19.17;;;10.87;;
13230;SDS011;6681;53.254;10.398;2022-12-11T02:59:36;14.63;;;9.67;;
13230;SDS011;6681;53.254;10.398;2022-12-11T03:02:05;17.03;;;9.90;;
13230;SDS011;6681;53.254;10.398;2022-12-11T03:04:31;17.40;;;10.40;;
13230;SDS011;6681;53.254;10.398;2022-12-11T03:07:01;13.57;;;9.00;;
13230;SDS011;6681;53.254;10.398;2022-12-11T03:09:36;14.17;;;9.30;;
13230;SDS011;6681;53.254;10.398;2022-12-11T03:12:03;16.00;;;10.50;;
13230;SDS011;6681;53.254;10.398;2022-12-11T03:14:30;15.93;;;9.30;;
13230;SDS011;6681;53.254;10.398;2022-12-11T03:17:00;16.37;;;10.03;;
13230;SDS011;6681;53.254;10.398;2022-12-11T03:19:39;17.27;;;9.70;;
13230;SDS011;6681;53.254;10.398;2022-12-11T03:22:14;14.43;;;10.03;;
13230;SDS011;6681;53.254;10.398;2022-12-11T03:24:57;16.53;;;11.00;;
13230;SDS011;6681;53.254;10.398;2022-12-11T03:27:32;18.33;;;10.00;;
13230;SDS011;6681;53.254;10.398;2022-12-11T03:29:59;15.97;;;9.93;;
13230;SDS011;6681;53.254;10.398;2022-12-11T03:32:41;14.20;;;9.07;;
13230;SDS011;6681;53.254;10.398;2022-12-11T03:37:58;19.50;;;10.97;;
13230;SDS011;6681;53.254;10.398;2022-12-11T03:40:30;14.80;;;9.00;;
13230;SDS011;6681;53.254;10.398;2022-12-11T03:42:58;16.30;;;10.83;;
13230;SDS011;6681;53.254;10.398;2022-12-11T03:45:24;15.17;;;9.00;;
13230;SDS011;6681;53.254;10.398;2022-12-11T03:47:53;13.40;;;8.43;;
13230;SDS011;6681;53.254;10.398;2022-12-11T03:50:22;14.47;;;8.83;;
13230;SDS011;6681;53.254;10.398;2022-12-11T03:52:50;12.83;;;8.40;;
13230;SDS011;6681;53.254;10.398;2022-12-11T03:55:17;12.40;;;8.33;;
13230;SDS011;6681;53.254;10.398;2022-12-11T03:57:45;13.53;;;9.03;;
13230;SDS011;6681;53.254;10.398;2022-12-11T04:00:12;15.73;;;9.27;;
13230;SDS011;6681;53.254;10.398;2022-12-11T04:02:40;12.73;;;9.20;;
13230;SDS011;6681;53.254;10.398;2022-12-11T04:05:07;14.53;;;9.70;;
13230;SDS011;6681;53.254;10.398;2022-12-11T04:07:33;14.60;;;9.00;;
13230;SDS011;6681;53.254;10.398;2022-12-11T04:09:58;15.83;;;9.23;;
13230;SDS011;6681;53.254;10.398;2022-12-11T04:12:24;15.63;;;8.97;;
13230;SDS011;6681;53.254;10.398;2022-12-11T04:14:50;12.03;;;8.37;;
13230;SDS011;6681;53.254;10.398;2022-12-11T04:17:28;14.33;;;9.20;;
13230;SDS011;6681;53.254;10.398;2022-12-11T04:20:14;18.13;;;11.10;;
13230;SDS011;6681;53.254;10.398;2022-12-11T04:23:02;13.87;;;8.63;;
13230;SDS011;6681;53.254;10.398;2022-12-11T04:25:47;14.13;;;9.27;;
13230;SDS011;6681;53.254;10.398;2022-12-11T04:28:13;12.90;;;8.00;;
13230;SDS011;6681;53.254;10.398;2022-12-11T04:30:38;16.20;;;9.70;;
13230;SDS011;6681;53.254;10.398;2022-12-11T04:33:04;14.50;;;9.03;;
13230;SDS011;6681;53.254;10.398;2022-12-11T04:35:30;15.03;;;8.00;;
13230;SDS011;6681;53.254;10.398;2022-12-11T04:37:55;14.00;;;8.70;;
13230;SDS011;6681;53.254;10.398;2022-12-11T04:40:21;12.33;;;7.73;;
13230;SDS011;6681;53.254;10.398;2022-12-11T04:42:47;12.93;;;8.90;;
13230;SDS011;6681;53.254;10.398;2022-12-11T04:45:13;12.17;;;7.90;;
13230;SDS011;6681;53.254;10.398;2022-12-11T04:47:39;15.07;;;7.47;;
13230;SDS011;6681;53.254;10.398;2022-12-11T04:50:06;13.60;;;8.53;;
13230;SDS011;6681;53.254;10.398;2022-12-11T04:52:33;14.80;;;8.43;;
13230;SDS011;6681;53.254;10.398;2022-12-11T04:54:58;16.37;;;9.27;;
13230;SDS011;6681;53.254;10.398;2022-12-11T04:57:24;14.40;;;8.10;;
13230;SDS011;6681;53.254;10.398;2022-12-11T04:59:50;14.83;;;8.83;;
13230;SDS011;6681;53.254;10.398;2022-12-11T05:02:15;12.00;;;7.57;;
13230;SDS011;6681;53.254;10.398;2022-12-11T05:04:41;12.67;;;7.67;;
13230;SDS011;6681;53.254;10.398;2022-12-11T05:07:07;13.63;;;8.20;;
13230;SDS011;6681;53.254;10.398;2022-12-11T05:09:36;14.67;;;9.13;;
13230;SDS011;6681;53.254;10.398;2022-12-11T05:12:02;16.40;;;8.77;;
13230;SDS011;6681;53.254;10.398;2022-12-11T05:14:27;15.37;;;9.30;;
13230;SDS011;6681;53.254;10.398;2022-12-11T05:16:56;15.83;;;9.60;;
13230;SDS011;6681;53.254;10.398;2022-12-11T05:19:22;14.43;;;8.27;;
13230;SDS011;6681;53.254;10.398;2022-12-11T05:21:48;12.83;;;8.83;;
13230;SDS011;6681;53.254;10.398;2022-12-11T05:24:14;11.97;;;7.40;;
13230;SDS011;6681;53.254;10.398;2022-12-11T05:26:39;15.33;;;8.97;;
13230;SDS011;6681;53.254;10.398;2022-12-11T05:29:05;12.00;;;8.20;;
13230;SDS011;6681;53.254;10.398;2022-12-11T05:31:30;14.80;;;8.50;;
13230;SDS011;6681;53.254;10.398;2022-12-11T05:33:56;12.53;;;9.00;;
13230;SDS011;6681;53.254;10.398;2022-12-11T05:36:23;14.97;;;8.47;;
13230;SDS011;6681;53.254;10.398;2022-12-11T05:38:54;12.93;;;8.30;;
13230;SDS011;6681;53.254;10.398;2022-12-11T05:41:22;13.30;;;7.87;;
13230;SDS011;6681;53.254;10.398;2022-12-11T05:43:48;13.23;;;8.57;;
13230;SDS011;6681;53.254;10.398;2022-12-11T05:48:41;9.80;;;6.70;;
13230;SDS011;6681;53.254;10.398;2022-12-11T05:51:09;12.17;;;8.23;;
13230;SDS011;6681;53.254;10.398;2022-12-11T05:53:35;12.63;;;7.90;;
13230;SDS011;6681;53.254;10.398;2022-12-11T05:56:06;12.50;;;8.67;;
13230;SDS011;6681;53.254;10.398;2022-12-11T05:58:34;13.20;;;8.03;;
13230;SDS011;6681;53.254;10.398;2022-12-11T06:01:00;15.37;;;8.53;;
13230;SDS011;6681;53.254;10.398;2022-12-11T06:03:26;15.03;;;8.47;;
13230;SDS011;6681;53.254;10.398;2022-12-11T06:05:52;15.63;;;8.60;;
13230;SDS011;6681;53.254;10.398;2022-12-11T06:08:18;11.13;;;8.30;;
13230;SDS011;6681;53.254;10.398;2022-12-11T06:10:44;11.63;;;8.60;;
13230;SDS011;6681;53.254;10.398;2022-12-11T06:13:11;14.70;;;9.13;;
13230;SDS011;6681;53.254;10.398;2022-12-11T06:15:37;15.57;;;9.37;;
13230;SDS011;6681;53.254;10.398;2022-12-11T06:18:03;15.67;;;8.83;;
13230;SDS011;6681;53.254;10.398;2022-12-11T06:20:32;14.27;;;9.30;;
13230;SDS011;6681;53.254;10.398;2022-12-11T06:22:59;13.90;;;9.20;;
13230;SDS011;6681;53.254;10.398;2022-12-11T06:25:25;12.33;;;7.70;;
13230;SDS011;6681;53.254;10.398;2022-12-11T06:27:52;14.63;;;8.63;;
13230;SDS011;6681;53.254;10.398;2022-12-11T06:30:18;11.53;;;8.80;;
13230;SDS011;6681;53.254;10.398;2022-12-11T06:32:43;13.17;;;9.73;;
13230;SDS011;6681;53.254;10.398;2022-12-11T06:35:09;14.27;;;9.77;;
13230;SDS011;6681;53.254;10.398;2022-12-11T06:37:36;13.63;;;9.80;;
13230;SDS011;6681;53.254;10.398;2022-12-11T06:40:05;13.93;;;10.33;;
13230;SDS011;6681;53.254;10.398;2022-12-11T06:42:33;19.10;;;10.87;;
13230;SDS011;6681;53.254;10.398;2022-12-11T06:44:59;16.73;;;10.83;;
13230;SDS011;6681;53.254;10.398;2022-12-11T06:47:28;14.77;;;9.70;;
13230;SDS011;6681;53.254;10.398;2022-12-11T06:49:54;15.67;;;9.33;;
13230;SDS011;6681;53.254;10.398;2022-12-11T06:52:21;11.77;;;7.77;;
13230;SDS011;6681;53.254;10.398;2022-12-11T06:54:47;15.97;;;9.47;;
13230;SDS011;6681;53.254;10.398;2022-12-11T06:57:13;12.57;;;8.37;;
13230;SDS011;6681;53.254;10.398;2022-12-11T06:59:39;19.53;;;9.70;;
13230;SDS011;6681;53.254;10.398;2022-12-11T07:02:05;16.00;;;9.83;;
13230;SDS011;6681;53.254;10.398;2022-12-11T07:04:31;18.87;;;10.07;;
13230;SDS011;6681;53.254;10.398;2022-12-11T07:06:56;17.73;;;10.17;;
13230;SDS011;6681;53.254;10.398;2022-12-11T07:09:22;20.93;;;10.33;;
13230;SDS011;6681;53.254;10.398;2022-12-11T07:11:52;24.43;;;13.03;;
13230;SDS011;6681;53.254;10.398;2022-12-11T07:14:18;20.83;;;11.13;;
13230;SDS011;6681;53.254;10.398;2022-12-11T07:16:44;15.03;;;10.27;;
13230;SDS011;6681;53.254;10.398;2022-12-11T07:19:10;20.87;;;11.47;;
13230;SDS011;6681;53.254;10.398;2022-12-11T07:21:38;16.47;;;9.83;;
13230;SDS011;6681;53.254;10.398;2022-12-11T07:24:04;19.77;;;9.80;;
13230;SDS011;6681;53.254;10.398;2022-12-11T07:26:30;19.20;;;10.23;;
13230;SDS011;6681;53.254;10.398;2022-12-11T07:28:56;17.47;;;9.73;;
13230;SDS011;6681;53.254;10.398;2022-12-11T07:31:23;19.57;;;12.30;;
13230;SDS011;6681;53.254;10.398;2022-12-11T07:33:53;21.70;;;12.07;;
13230;SDS011;6681;53.254;10.398;2022-12-11T07:36:19;18.30;;;11.03;;
13230;SDS011;6681;53.254;10.398;2022-12-11T07:38:45;18.53;;;11.70;;
13230;SDS011;6681;53.254;10.398;2022-12-11T07:41:11;18.03;;;10.87;;
13230;SDS011;6681;53.254;10.398;2022-12-11T07:43:38;16.23;;;11.13;;
13230;SDS011;6681;53.254;10.398;2022-12-11T07:46:09;18.07;;;11.27;;
13230;SDS011;6681;53.254;10.398;2022-12-11T07:48:40;19.70;;;10.90;;
13230;SDS011;6681;53.254;10.398;2022-12-11T07:51:12;18.93;;;10.90;;
13230;SDS011;6681;53.254;10.398;2022-12-11T07:53:42;20.00;;;12.00;;
13230;SDS011;6681;53.254;10.398;2022-12-11T07:56:09;16.37;;;10.67;;
13230;SDS011;6681;53.254;10.398;2022-12-11T07:58:34;14.43;;;9.37;;
13230;SDS011;6681;53.254;10.398;2022-12-11T08:01:01;17.43;;;10.73;;
13230;SDS011;6681;53.254;10.398;2022-12-11T08:03:26;17.80;;;10.83;;
13230;SDS011;6681;53.254;10.398;2022-12-11T08:05:59;17.13;;;11.07;;
13230;SDS011;6681;53.254;10.398;2022-12-11T08:08:25;19.03;;;10.20;;
13230;SDS011;6681;53.254;10.398;2022-12-11T08:10:50;18.00;;;10.30;;
13230;SDS011;6681;53.254;10.398;2022-12-11T08:13:16;21.43;;;12.83;;
13230;SDS011;6681;53.254;10.398;2022-12-11T08:15:41;21.13;;;11.43;;
13230;SDS011;6681;53.254;10.398;2022-12-11T08:18:07;18.83;;;10.60;;
13230;SDS011;6681;53.254;10.398;2022-12-11T08:20:33;17.23;;;11.33;;
13230;SDS011;6681;53.254;10.398;2022-12-11T08:23:03;18.57;;;11.87;;
13230;SDS011;6681;53.254;10.398;2022-12-11T08:25:28;17.43;;;11.53;;
13230;SDS011;6681;53.254;10.398;2022-12-11T08:27:54;22.53;;;12.00;;
13230;SDS011;6681;53.254;10.398;2022-12-11T08:30:20;16.57;;;10.10;;
13230;SDS011;6681;53.254;10.398;2022-12-11T08:32:45;14.73;;;10.97;;
13230;SDS011;6681;53.254;10.398;2022-12-11T08:35:11;21.23;;;11.20;;
13230;SDS011;6681;53.254;10.398;2022-12-11T08:37:36;15.87;;;11.07;;
13230;SDS011;6681;53.254;10.398;2022-12-11T08:40:02;17.93;;;12.27;;
13230;SDS011;6681;53.254;10.398;2022-12-11T08:42:28;19.93;;;12.30;;
13230;SDS011;6681;53.254;10.398;2022-12-11T08:44:54;20.00;;;12.33;;
13230;SDS011;6681;53.254;10.398;2022-12-11T08:47:19;23.07;;;13.97;;
13230;SDS011;6681;53.254;10.398;2022-12-11T08:49:45;23.23;;;12.83;;
13230;SDS011;6681;53.254;10.398;2022-12-11T08:52:11;26.00;;;14.77;;
13230;SDS011;6681;53.254;10.398;2022-12-11T08:54:36;24.63;;;15.83;;
13230;SDS011;6681;53.254;10.398;2022-12-11T08:57:02;26.87;;;16.17;;
13230;SDS011;6681;53.254;10.398;2022-12-11T08:59:28;26.40;;;14.67;;
13230;SDS011;6681;53.254;10.398;2022-12-11T09:01:54;26.17;;;14.33;;
13230;SDS011;6681;53.254;10.398;2022-12-11T09:04:20;18.63;;;13.60;;
13230;SDS011;6681;53.254;10.398;2022-12-11T09:06:46;20.03;;;13.30;;
13230;SDS011;6681;53.254;10.398;2022-12-11T09:09:13;23.47;;;14.27;;
13230;SDS011;6681;53.254;10.398;2022-12-11T09:11:39;19.37;;;12.30;;
13230;SDS011;6681;53.254;10.398;2022-12-11T09:14:05;23.17;;;14.50;;
13230;SDS011;6681;53.254;10.398;2022-12-11T09:16:31;22.10;;;12.50;;
13230;SDS011;6681;53.254;10.398;2022-12-11T09:18:57;22.40;;;12.87;;
13230;SDS011;6681;53.254;10.398;2022-12-11T09:21:25;15.83;;;10.43;;
13230;SDS011;6681;53.254;10.398;2022-12-11T09:23:53;18.67;;;12.07;;
13230;SDS011;6681;53.254;10.398;2022-12-11T09:26:19;20.63;;;12.23;;
13230;SDS011;6681;53.254;10.398;2022-12-11T09:28:46;22.63;;;13.03;;
13230;SDS011;6681;53.254;10.398;2022-12-11T09:31:16;21.50;;;12.53;;
13230;SDS011;6681;53.254;10.398;2022-12-11T09:33:47;16.77;;;11.03;;
13230;SDS011;6681;53.254;10.398;2022-12-11T09:36:14;13.57;;;9.40;;
13230;SDS011;6681;53.254;10.398;2022-12-11T09:38:40;17.70;;;10.20;;
13230;SDS011;6681;53.254;10.398;2022-12-11T09:44:21;14.93;;;10.53;;
13230;SDS011;6681;53.254;10.398;2022-12-11T09:46:49;15.97;;;9.90;;
13230;SDS011;6681;53.254;10.398;2022-12-11T09:49:31;15.30;;;9.83;;
13230;SDS011;6681;53.254;10.398;2022-12-11T09:54:46;17.67;;;11.00;;
13230;SDS011;6681;53.254;10.398;2022-12-11T10:02:59;14.87;;;9.57;;
13230;SDS011;6681;53.254;10.398;2022-12-11T10:05:35;14.90;;;9.57;;
13230;SDS011;6681;53.254;10.398;2022-12-11T10:08:09;17.40;;;10.23;;
13230;SDS011;6681;53.254;10.398;2022-12-11T10:10:46;15.43;;;10.57;;
13230;SDS011;6681;53.254;10.398;2022-12-11T10:13:23;20.47;;;11.27;;
13230;SDS011;6681;53.254;10.398;2022-12-11T10:16:23;18.93;;;10.67;;
13230;SDS011;6681;53.254;10.398;2022-12-11T10:18:58;16.60;;;10.87;;
13230;SDS011;6681;53.254;10.398;2022-12-11T10:21:24;15.90;;;9.57;;
13230;SDS011;6681;53.254;10.398;2022-12-11T10:23:58;16.07;;;9.27;;
13230;SDS011;6681;53.254;10.398;2022-12-11T10:26:26;17.13;;;10.13;;
13230;SDS011;6681;53.254;10.398;2022-12-11T10:28:52;17.40;;;10.60;;
13230;SDS011;6681;53.254;10.398;2022-12-11T10:31:23;15.37;;;10.23;;
13230;SDS011;6681;53.254;10.398;2022-12-11T10:34:00;19.27;;;10.40;;
13230;SDS011;6681;53.254;10.398;2022-12-11T10:36:30;16.57;;;10.37;;
13230;SDS011;6681;53.254;10.398;2022-12-11T10:38:58;20.03;;;10.40;;
13230;SDS011;6681;53.254;10.398;2022-12-11T10:46:48;18.63;;;11.00;;
13230;SDS011;6681;53.254;10.398;2022-12-11T10:49:27;16.73;;;10.63;;
13230;SDS011;6681;53.254;10.398;2022-12-11T10:51:56;19.37;;;11.60;;
13230;SDS011;6681;53.254;10.398;2022-12-11T10:56:57;19.83;;;10.57;;
13230;SDS011;6681;53.254;10.398;2022-12-11T11:02:24;16.63;;;10.93;;
13230;SDS011;6681;53.254;10.398;2022-12-11T11:07:54;16.50;;;10.57;;
13230;SDS011;6681;53.254;10.398;2022-12-11T11:10:28;15.83;;;9.37;;
13230;SDS011;6681;53.254;10.398;2022-12-11T11:12:54;16.50;;;11.60;;
13230;SDS011;6681;53.254;10.398;2022-12-11T11:15:26;17.50;;;10.77;;
13230;SDS011;6681;53.254;10.398;2022-12-11T11:17:54;15.13;;;9.57;;
13230;SDS011;6681;53.254;10.398;2022-12-11T11:20:42;17.57;;;10.90;;
13230;SDS011;6681;53.254;10.398;2022-12-11T11:23:12;20.00;;;10.80;;
13230;SDS011;6681;53.254;10.398;2022-12-11T11:25:39;20.30;;;12.47;;
13230;SDS011;6681;53.254;10.398;2022-12-11T11:28:19;18.67;;;10.97;;
13230;SDS011;6681;53.254;10.398;2022-12-11T11:31:30;19.10;;;11.97;;
13230;SDS011;6681;53.254;10.398;2022-12-11T11:36:21;19.40;;;11.23;;
13230;SDS011;6681;53.254;10.398;2022-12-11T11:44:26;19.57;;;10.67;;
13230;SDS011;6681;53.254;10.398;2022-12-11T11:46:59;16.57;;;10.83;;
13230;SDS011;6681;53.254;10.398;2022-12-11T11:55:39;20.03;;;11.30;;
13230;SDS011;6681;53.254;10.398;2022-12-11T11:58:21;15.00;;;9.90;;
13230;SDS011;6681;53.254;10.398;2022-12-11T12:00:55;17.77;;;11.57;;
13230;SDS011;6681;53.254;10.398;2022-12-11T12:03:22;20.20;;;13.00;;
13230;SDS011;6681;53.254;10.398;2022-12-11T12:08:41;15.00;;;10.80;;
13230;SDS011;6681;53.254;10.398;2022-12-11T12:11:32;16.87;;;10.77;;
13230;SDS011;6681;53.254;10.398;2022-12-11T12:16:52;17.80;;;11.13;;
13230;SDS011;6681;53.254;10.398;2022-12-11T12:19:45;22.57;;;12.50;;
13230;SDS011;6681;53.254;10.398;2022-12-11T12:23:01;17.90;;;11.40;;
13230;SDS011;6681;53.254;10.398;2022-12-11T12:39:13;16.13;;;11.60;;
13230;SDS011;6681;53.254;10.398;2022-12-11T12:41:47;20.17;;;12.13;;
13230;SDS011;6681;53.254;10.398;2022-12-11T12:44:24;17.90;;;10.13;;
13230;SDS011;6681;53.254;10.398;2022-12-11T12:47:01;16.90;;;11.23;;
13230;SDS011;6681;53.254;10.398;2022-12-11T12:49:43;20.03;;;12.80;;
13230;SDS011;6681;53.254;10.398;2022-12-11T12:52:12;26.40;;;14.27;;
13230;SDS011;6681;53.254;10.398;2022-12-11T12:54:41;27.57;;;16.23;;
13230;SDS011;6681;53.254;10.398;2022-12-11T12:57:30;16.90;;;11.43;;
13230;SDS011;6681;53.254;10.398;2022-12-11T12:59:58;22.43;;;12.83;;
13230;SDS011;6681;53.254;10.398;2022-12-11T13:02:23;17.50;;;11.27;;
13230;SDS011;6681;53.254;10.398;2022-12-11T13:04:57;19.47;;;12.63;;
13230;SDS011;6681;53.254;10.398;2022-12-11T13:07:28;17.63;;;11.33;;
13230;SDS011;6681;53.254;10.398;2022-12-11T13:09:57;18.67;;;12.87;;
13230;SDS011;6681;53.254;10.398;2022-12-11T13:12:44;16.90;;;12.10;;
13230;SDS011;6681;53.254;10.398;2022-12-11T13:18:00;18.33;;;11.60;;
13230;SDS011;6681;53.254;10.398;2022-12-11T13:20:47;22.13;;;11.93;;
13230;SDS011;6681;53.254;10.398;2022-12-11T13:23:18;19.83;;;11.93;;
13230;SDS011;6681;53.254;10.398;2022-12-11T13:26:02;18.93;;;11.70;;
13230;SDS011;6681;53.254;10.398;2022-12-11T13:31:21;21.57;;;13.90;;
13230;SDS011;6681;53.254;10.398;2022-12-11T13:33:48;22.60;;;13.57;;
13230;SDS011;6681;53.254;10.398;2022-12-11T13:38:46;22.63;;;11.93;;
13230;SDS011;6681;53.254;10.398;2022-12-11T13:41:16;19.43;;;12.03;;
13230;SDS011;6681;53.254;10.398;2022-12-11T13:43:43;22.80;;;12.23;;
13230;SDS011;6681;53.254;10.398;2022-12-11T13:46:12;19.87;;;12.13;;
13230;SDS011;6681;53.254;10.398;2022-12-11T13:51:20;24.67;;;13.60;;
13230;SDS011;6681;53.254;10.398;2022-12-11T13:53:47;23.30;;;12.40;;
13230;SDS011;6681;53.254;10.398;2022-12-11T13:56:17;21.83;;;13.73;;
13230;SDS011;6681;53.254;10.398;2022-12-11T13:58:44;24.17;;;14.23;;
13230;SDS011;6681;53.254;10.398;2022-12-11T14:03:42;19.67;;;12.73;;
13230;SDS011;6681;53.254;10.398;2022-12-11T14:06:31;18.60;;;12.43;;
13230;SDS011;6681;53.254;10.398;2022-12-11T14:08:59;21.57;;;12.97;;
13230;SDS011;6681;53.254;10.398;2022-12-11T14:11:31;19.37;;;12.17;;
13230;SDS011;6681;53.254;10.398;2022-12-11T14:14:00;20.33;;;12.00;;
13230;SDS011;6681;53.254;10.398;2022-12-11T14:16:28;22.70;;;13.37;;
13230;SDS011;6681;53.254;10.398;2022-12-11T14:18:56;20.73;;;13.30;;
13230;SDS011;6681;53.254;10.398;2022-12-11T14:21:29;22.23;;;12.93;;
13230;SDS011;6681;53.254;10.398;2022-12-11T14:23:58;23.20;;;13.47;;
13230;SDS011;6681;53.254;10.398;2022-12-11T14:26:32;24.83;;;13.97;;
13230;SDS011;6681;53.254;10.398;2022-12-11T14:28:58;20.23;;;13.03;;
13230;SDS011;6681;53.254;10.398;2022-12-11T14:33:54;21.23;;;12.73;;
13230;SDS011;6681;53.254;10.398;2022-12-11T14:36:31;20.57;;;12.70;;
13230;SDS011;6681;53.254;10.398;2022-12-11T14:39:03;22.17;;;14.67;;
13230;SDS011;6681;53.254;10.398;2022-12-11T14:41:57;22.47;;;13.97;;
13230;SDS011;6681;53.254;10.398;2022-12-11T14:44:24;20.20;;;13.33;;
13230;SDS011;6681;53.254;10.398;2022-12-11T14:46:54;22.47;;;14.33;;
13230;SDS011;6681;53.254;10.398;2022-12-11T14:49:38;17.97;;;12.23;;
13230;SDS011;6681;53.254;10.398;2022-12-11T14:52:19;20.20;;;12.13;;
13230;SDS011;6681;53.254;10.398;2022-12-11T14:54:51;22.63;;;12.00;;
13230;SDS011;6681;53.254;10.398;2022-12-11T14:57:26;24.23;;;14.17;;
13230;SDS011;6681;53.254;10.398;2022-12-11T14:59:54;16.57;;;12.23;;
13230;SDS011;6681;53.254;10.398;2022-12-11T15:07:56;23.77;;;13.20;;
13230;SDS011;6681;53.254;10.398;2022-12-11T15:10:24;22.57;;;13.63;;
13230;SDS011;6681;53.254;10.398;2022-12-11T15:12:50;22.03;;;12.90;;
13230;SDS011;6681;53.254;10.398;2022-12-11T15:15:17;21.03;;;13.40;;
13230;SDS011;6681;53.254;10.398;2022-12-11T15:17:43;19.10;;;13.30;;
13230;SDS011;6681;53.254;10.398;2022-12-11T15:20:18;18.87;;;12.60;;
13230;SDS011;6681;53.254;10.398;2022-12-11T15:22:50;24.93;;;14.00;;
13230;SDS011;6681;53.254;10.398;2022-12-11T15:25:18;23.93;;;14.73;;
13230;SDS011;6681;53.254;10.398;2022-12-11T15:27:48;35.63;;;17.77;;
13230;SDS011;6681;53.254;10.398;2022-12-11T15:32:43;29.53;;;17.70;;
13230;SDS011;6681;53.254;10.398;2022-12-11T15:35:20;58.67;;;26.80;;
13230;SDS011;6681;53.254;10.398;2022-12-11T15:37:51;45.60;;;24.27;;
13230;SDS011;6681;53.254;10.398;2022-12-11T15:40:21;37.80;;;20.50;;
13230;SDS011;6681;53.254;10.398;2022-12-11T15:42:48;29.77;;;17.57;;
13230;SDS011;6681;53.254;10.398;2022-12-11T15:45:15;41.47;;;17.07;;
13230;SDS011;6681;53.254;10.398;2022-12-11T15:47:43;33.83;;;19.60;;
13230;SDS011;6681;53.254;10.398;2022-12-11T15:52:41;36.50;;;21.10;;
13230;SDS011;6681;53.254;10.398;2022-12-11T15:55:08;32.77;;;18.13;;
13230;SDS011;6681;53.254;10.398;2022-12-11T15:57:33;26.63;;;16.07;;
13230;SDS011;6681;53.254;10.398;2022-12-11T15:59:59;26.73;;;16.30;;
13230;SDS011;6681;53.254;10.398;2022-12-11T16:02:25;29.50;;;18.20;;
13230;SDS011;6681;53.254;10.398;2022-12-11T16:04:52;26.10;;;15.50;;
13230;SDS011;6681;53.254;10.398;2022-12-11T16:07:21;21.67;;;14.53;;
13230;SDS011;6681;53.254;10.398;2022-12-11T16:09:49;22.53;;;14.20;;
13230;SDS011;6681;53.254;10.398;2022-12-11T16:12:15;23.27;;;15.30;;
13230;SDS011;6681;53.254;10.398;2022-12-11T16:14:41;32.20;;;17.07;;
13230;SDS011;6681;53.254;10.398;2022-12-11T16:17:07;26.67;;;15.77;;
13230;SDS011;6681;53.254;10.398;2022-12-11T16:19:35;27.87;;;15.73;;